createdAt,value
2023-05-06T00:00:44.577Z,62.60
2023-05-06T00:05:33.873Z,99.90
2023-05-06T00:10:19.226Z,1.00
2023-05-06T00:15:08.373Z,1.00
2023-05-06T00:19:59.627Z,66.80
2023-05-06T00:24:45.056Z,99.90
2023-05-06T00:29:33.596Z,99.90
2023-05-06T00:34:20.641Z,99.90
2023-05-06T00:39:13.388Z,99.90
2023-05-06T00:43:59.006Z,99.90
2023-05-06T00:48:48.132Z,99.90
2023-05-06T00:53:35.411Z,99.90
2023-05-06T00:58:21.768Z,99.90
2023-05-06T01:03:09.301Z,99.90
2023-05-06T01:08:04.807Z,99.90
2023-05-06T01:13:02.815Z,99.90
2023-05-06T01:17:54.688Z,99.90
2023-05-06T01:22:39.282Z,99.90
2023-05-06T01:28:02.899Z,99.90
2023-05-06T01:33:00.483Z,99.90
2023-05-06T01:37:53.839Z,99.90
2023-05-06T01:42:40.050Z,99.90
2023-05-06T01:47:26.080Z,99.90
2023-05-06T01:52:18.436Z,99.90
2023-05-06T01:57:02.136Z,99.90
2023-05-06T02:01:51.845Z,99.90
2023-05-06T02:06:37.423Z,99.90
2023-05-06T02:11:26.472Z,99.90
2023-05-06T02:16:27.852Z,99.90
2023-05-06T02:21:19.473Z,99.90
2023-05-06T02:26:05.878Z,99.90
2023-05-06T02:30:56.957Z,99.90
2023-05-06T02:35:42.594Z,99.90
2023-05-06T02:40:32.127Z,99.90
2023-05-06T02:45:18.226Z,99.90
2023-05-06T02:50:21.887Z,99.90
2023-05-06T02:55:14.518Z,99.90
2023-05-06T02:59:57.981Z,99.90
2023-05-06T03:04:51.256Z,99.90
2023-05-06T03:09:36.998Z,99.90
2023-05-06T03:14:23.594Z,99.90
2023-05-06T03:19:09.765Z,99.90
2023-05-06T03:23:56.982Z,99.90
2023-05-06T03:28:47.668Z,99.90
2023-05-06T03:33:34.322Z,99.90
2023-05-06T03:38:22.332Z,99.90
2023-05-06T03:43:12.387Z,99.90
2023-05-06T03:48:32.794Z,99.90
2023-05-06T03:53:18.799Z,99.90
2023-05-06T03:58:04.450Z,99.90
2023-05-06T04:02:53.710Z,99.90
2023-05-06T04:07:44.981Z,99.90
2023-05-06T04:12:30.409Z,99.90
2023-05-06T04:17:18.914Z,99.90
2023-05-06T04:22:06.275Z,99.90
2023-05-06T04:26:54.008Z,99.90
2023-05-06T04:31:43.998Z,99.90
2023-05-06T04:36:31.050Z,99.90
2023-05-06T04:41:47.956Z,99.90
2023-05-06T04:46:37.599Z,99.90
2023-05-06T04:51:28.083Z,99.90
2023-05-06T04:56:16.387Z,99.90
2023-05-06T05:01:05.179Z,99.90
2023-05-06T05:05:51.032Z,99.90
2023-05-06T05:10:53.026Z,99.90
2023-05-06T05:15:43.081Z,99.90
2023-05-06T05:20:32.641Z,99.90
2023-05-06T05:25:21.386Z,99.90
2023-05-06T05:30:07.460Z,99.90
2023-05-06T05:34:54.504Z,99.90
2023-05-06T05:39:44.829Z,99.90
2023-05-06T05:44:32.501Z,99.90
2023-05-06T05:49:19.744Z,99.90
2023-05-06T05:54:05.731Z,99.90
2023-05-06T05:58:55.675Z,99.90
2023-05-06T06:03:43.485Z,99.90
2023-05-06T06:08:33.231Z,99.90
2023-05-06T06:13:17.806Z,99.90
2023-05-06T06:18:08.927Z,99.90
2023-05-06T06:22:55.430Z,99.90
2023-05-06T06:27:45.119Z,99.90
2023-05-06T06:32:29.380Z,99.90
2023-05-06T06:37:22.077Z,99.90
2023-05-06T06:42:07.907Z,99.90
2023-05-06T06:46:56.883Z,99.90
2023-05-06T06:51:42.248Z,99.90
2023-05-06T06:56:32.329Z,99.90
2023-05-06T07:01:19.420Z,99.90
2023-05-06T07:06:05.855Z,99.90
2023-05-06T07:11:16.212Z,99.90
2023-05-06T07:16:00.532Z,99.90
2023-05-06T07:38:21.478Z,99.90
2023-05-06T07:43:58.987Z,17.00
2023-05-06T07:55:45.609Z,1.00
2023-05-06T08:00:32.067Z,1.00
2023-05-06T08:15:59.512Z,1.00
2023-05-06T08:21:08.147Z,1.00
2023-05-06T08:26:12.558Z,1.00
2023-05-06T08:31:25.400Z,1.00
2023-05-06T08:36:46.283Z,1.00
2023-05-06T08:53:23.044Z,1.00
2023-05-06T08:58:21.756Z,1.00
2023-05-06T09:03:12.064Z,1.00
2023-05-06T09:07:59.488Z,1.00
2023-05-06T09:13:01.551Z,1.00
2023-05-06T09:17:56.674Z,1.00
2023-05-06T09:22:40.994Z,1.00
2023-05-06T09:27:28.278Z,1.00
2023-05-06T09:33:03.652Z,1.00
2023-05-06T09:43:13.652Z,1.00
2023-05-06T09:48:03.752Z,1.00
2023-05-06T10:09:33.580Z,1.00
2023-05-06T10:19:48.035Z,1.00
2023-05-06T10:30:08.649Z,1.00
2023-05-06T10:35:12.114Z,1.00
2023-05-06T10:39:59.935Z,1.00
2023-05-06T10:50:25.485Z,1.00
2023-05-06T10:55:58.960Z,1.00
2023-05-06T11:01:03.314Z,1.00
2023-05-06T11:05:52.296Z,1.00
2023-05-06T11:16:50.060Z,1.00
2023-05-06T11:21:40.292Z,1.00
2023-05-06T11:26:26.458Z,1.00
2023-05-06T11:31:24.698Z,1.00
2023-05-06T11:36:19.657Z,1.00
2023-05-06T11:41:03.393Z,1.00
2023-05-06T11:45:52.871Z,1.00
2023-05-06T11:50:38.388Z,1.00
2023-05-06T11:55:28.955Z,1.00
2023-05-06T12:00:16.463Z,1.00
2023-05-06T12:05:04.392Z,1.00
2023-05-06T12:09:55.246Z,1.00
2023-05-06T12:14:41.785Z,1.00
2023-05-06T12:19:29.634Z,1.00
2023-05-06T12:24:16.617Z,1.00
2023-05-06T12:29:08.360Z,1.00
2023-05-06T12:33:58.050Z,1.00
2023-05-06T12:38:55.203Z,1.00
2023-05-06T12:43:43.233Z,1.00
2023-05-06T12:48:32.749Z,1.00
2023-05-06T12:53:50.236Z,1.00
2023-05-06T12:58:38.775Z,1.00
2023-05-06T13:03:27.177Z,1.00
2023-05-06T13:08:15.548Z,1.00
2023-05-06T13:13:02.928Z,1.00
2023-05-06T13:17:53.102Z,1.00
2023-05-06T13:22:50.553Z,1.00
2023-05-06T13:27:43.271Z,1.00
2023-05-06T13:32:31.361Z,1.00
2023-05-06T13:37:22.083Z,1.00
2023-05-06T13:42:08.045Z,1.00
2023-05-06T13:46:53.244Z,1.00
2023-05-06T13:51:47.067Z,1.00
2023-05-06T13:56:52.974Z,1.00
2023-05-06T14:01:36.609Z,1.00
2023-05-06T14:06:22.036Z,1.00
2023-05-06T14:11:32.237Z,1.00
2023-05-06T14:16:16.781Z,1.00
2023-05-06T14:21:04.748Z,1.00
2023-05-06T14:25:51.406Z,1.00
2023-05-06T14:30:40.456Z,1.00
2023-05-06T14:35:26.134Z,1.00
2023-05-06T14:40:18.578Z,1.00
2023-05-06T14:45:02.185Z,1.00
2023-05-06T14:49:52.546Z,1.00
2023-05-06T15:01:49.359Z,1.00
2023-05-06T15:06:56.770Z,1.00
2023-05-06T15:11:47.909Z,1.00
2023-05-06T15:16:31.617Z,1.00
2023-05-06T15:21:17.931Z,1.00
2023-05-06T15:26:38.393Z,1.00
2023-05-06T15:31:27.145Z,1.00
2023-05-06T15:36:13.605Z,1.00
2023-05-06T15:41:07.354Z,1.00
2023-05-06T15:45:50.882Z,1.00
2023-05-06T15:50:39.478Z,1.00
2023-05-06T15:55:26.576Z,1.00
2023-05-06T16:00:19.289Z,1.00
2023-05-06T16:05:07.877Z,1.00
2023-05-06T16:09:53.576Z,1.00
2023-05-06T16:14:38.719Z,1.00
2023-05-06T16:19:32.196Z,1.00
2023-05-06T16:24:16.071Z,1.00
2023-05-06T16:29:05.456Z,1.00
2023-05-06T16:33:51.024Z,1.00
2023-05-06T16:38:37.951Z,1.00
2023-05-06T16:43:27.880Z,1.00
2023-05-06T16:48:18.039Z,1.00
2023-05-06T16:53:01.922Z,1.00
2023-05-06T16:57:54.718Z,1.00
2023-05-06T17:02:40.451Z,1.00
2023-05-06T17:07:27.607Z,1.00
2023-05-06T17:12:47.199Z,1.00
2023-05-06T17:17:35.032Z,1.00
2023-05-06T17:23:16.706Z,1.00
2023-05-06T17:28:01.717Z,1.00
2023-05-06T17:32:46.014Z,1.00
2023-05-06T17:37:47.027Z,1.00
2023-05-06T17:43:28.398Z,1.00
2023-05-06T17:48:17.081Z,1.00
2023-05-06T17:53:01.875Z,1.00
2023-05-06T17:58:37.769Z,1.00
2023-05-06T18:03:48.077Z,1.00
2023-05-06T18:08:45.047Z,1.00
2023-05-06T18:13:47.619Z,1.00
2023-05-06T18:18:57.716Z,1.00
2023-05-06T18:23:44.531Z,1.00
2023-05-06T18:28:29.633Z,1.00
2023-05-06T18:33:18.188Z,1.00
2023-05-06T18:38:25.487Z,1.00
2023-05-06T18:43:11.505Z,1.00
2023-05-06T18:48:00.215Z,1.00
2023-05-06T18:52:46.855Z,1.00
2023-05-06T18:57:50.976Z,1.00
2023-05-06T19:02:39.988Z,1.00
2023-05-06T19:07:27.432Z,1.00
2023-05-06T19:12:51.068Z,1.00
2023-05-06T19:17:36.797Z,1.00
2023-05-06T19:22:26.192Z,1.00
2023-05-06T19:27:11.688Z,1.00
2023-05-06T19:32:16.199Z,1.00
2023-05-06T19:37:32.056Z,1.00
2023-05-06T19:42:22.110Z,1.00
2023-05-06T19:47:13.468Z,1.00
2023-05-06T19:51:58.657Z,1.00
2023-05-06T19:56:49.199Z,1.00
2023-05-06T20:01:53.854Z,1.00
2023-05-06T20:06:37.996Z,1.00
2023-05-06T20:11:49.228Z,1.00
2023-05-06T20:17:17.647Z,1.00
2023-05-06T20:22:10.992Z,1.00
2023-05-06T20:26:59.199Z,1.00
2023-05-06T20:31:43.243Z,1.00
2023-05-06T20:36:50.314Z,1.00
2023-05-06T20:42:11.561Z,1.00
2023-05-06T20:47:46.671Z,1.00
2023-05-06T20:52:49.280Z,1.00
2023-05-06T20:59:26.499Z,1.00
2023-05-06T21:03:59.344Z,1.00
2023-05-06T21:08:48.308Z,54.40
2023-05-06T21:13:36.588Z,35.20
2023-05-06T21:18:40.464Z,99.90
2023-05-06T21:29:51.862Z,99.90
2023-05-06T21:34:40.282Z,99.90
2023-05-06T21:39:29.006Z,99.90
2023-05-06T21:44:15.688Z,99.90
2023-05-06T21:49:03.316Z,99.90
2023-05-06T21:53:53.302Z,1.00
2023-05-06T21:59:39.804Z,1.00
2023-05-06T22:04:11.024Z,1.00
2023-05-06T22:09:08.797Z,1.00
2023-05-06T22:13:54.305Z,1.00
2023-05-06T22:18:41.726Z,99.90
2023-05-06T22:23:32.146Z,99.90
2023-05-06T22:28:16.974Z,99.90
2023-05-06T22:33:03.857Z,99.90
2023-05-06T22:37:53.803Z,99.90
2023-05-06T22:42:38.594Z,1.00
2023-05-06T22:47:42.706Z,99.90
2023-05-06T22:52:44.420Z,1.00
2023-05-06T22:58:08.406Z,1.00
2023-05-06T23:02:59.621Z,1.00
2023-05-06T23:08:15.632Z,99.90
2023-05-06T23:13:05.817Z,1.00
2023-05-06T23:23:32.530Z,1.00
2023-05-06T23:28:17.774Z,91.10
2023-05-06T23:33:05.085Z,1.00
2023-05-06T23:43:15.922Z,1.00
2023-05-06T23:48:13.515Z,99.90
